Time;durP1;ratioP1;P1;durP2;ratioP2;P2;SDS_P1;SDS_P2;PMS_P1;PMS_P2;Temp;Humidity;BMP_temperature;BMP_pressure;BME280_temperature;BME280_humidity;BME280_pressure;Samples;Min_cycle;Max_cycle;Signal;HPM_P1;HPM_P2
2021/10/18 00:02:40;;;;;;;1.60;0.67;;;;;;;5.87;59.22;101692.25;6312494;28;20301;-73
2021/10/18 00:05:45;;;;;;;2.20;0.70;;;;;;;5.81;59.24;101698.28;6311446;28;20374;-72
2021/10/18 00:08:49;;;;;;;1.70;0.70;;;;;;;5.77;57.94;101692.34;6311355;28;20242;-72
2021/10/18 00:11:55;;;;;;;0.73;0.73;;;;;;;5.73;58.53;101700.97;6312209;28;20344;-72
2021/10/18 00:14:59;;;;;;;0.83;0.83;;;;;;;5.75;58.19;101698.94;6311364;28;20195;-72
2021/10/18 00:18:04;;;;;;;0.70;0.70;;;;;;;5.74;58.28;101703.50;6312678;28;20193;-72
2021/10/18 00:21:09;;;;;;;1.80;0.50;;;;;;;5.69;58.75;101705.88;6311230;28;20398;-72
2021/10/18 00:24:13;;;;;;;0.70;0.70;;;;;;;5.61;58.36;101700.41;6312560;28;20187;-72
2021/10/18 00:27:19;;;;;;;0.80;0.80;;;;;;;5.59;58.92;101716.00;6312192;28;20278;-73
2021/10/18 00:30:24;;;;;;;1.17;0.80;;;;;;;5.66;58.70;101712.47;6311708;28;20216;-72
2021/10/18 00:33:28;;;;;;;0.80;0.80;;;;;;;5.67;59.71;101719.56;6312425;28;20189;-72
2021/10/18 00:36:32;;;;;;;0.63;0.63;;;;;;;5.66;59.36;101706.19;6311976;28;20186;-72
2021/10/18 00:39:36;;;;;;;2.33;0.80;;;;;;;5.60;59.68;101718.53;6312324;28;20188;-72
2021/10/18 00:42:43;;;;;;;0.60;0.60;;;;;;;5.53;60.31;101722.03;6312296;28;20193;-72
2021/10/18 00:45:47;;;;;;;0.80;0.70;;;;;;;5.61;58.69;101735.63;6310905;28;20375;-72
2021/10/18 00:48:53;;;;;;;0.70;0.70;;;;;;;5.58;60.38;101735.94;6310944;28;20503;-72
2021/10/18 00:52:00;;;;;;;0.60;0.60;;;;;;;5.54;60.34;101734.59;6312173;28;20218;-72
2021/10/18 00:55:06;;;;;;;0.60;0.60;;;;;;;5.52;60.33;101742.03;6310849;28;20363;-72
2021/10/18 00:58:12;;;;;;;2.10;0.80;;;;;;;5.45;59.36;101740.94;6312134;28;20190;-72
2021/10/18 01:01:17;;;;;;;0.80;0.80;;;;;;;5.48;60.78;101746.03;6311105;28;20274;-73
2021/10/18 01:04:23;;;;;;;0.80;0.80;;;;;;;5.62;59.40;101748.16;6311952;28;20184;-72
2021/10/18 01:07:27;;;;;;;0.80;0.80;;;;;;;5.42;60.12;101746.69;6311984;28;20186;-72
2021/10/18 01:10:31;;;;;;;0.70;0.70;;;;;;;5.49;60.56;101742.34;6310670;28;20190;-72
2021/10/18 01:13:37;;;;;;;0.87;0.87;;;;;;;5.38;60.33;101751.59;6311915;28;20255;-72
2021/10/18 01:16:41;;;;;;;1.60;0.80;;;;;;;5.44;60.17;101750.09;6310587;28;20524;-72
2021/10/18 01:19:46;;;;;;;0.70;0.70;;;;;;;5.42;60.39;101760.22;6310541;28;20359;-72
2021/10/18 01:22:51;;;;;;;0.90;0.90;;;;;;;5.45;60.72;101763.47;6312380;28;20216;-72
2021/10/18 01:25:55;;;;;;;0.80;0.80;;;;;;;5.49;61.23;101758.56;6316187;28;20186;-72
2021/10/18 01:28:59;;;;;;;0.60;0.60;;;;;;;5.44;61.03;101767.19;6316325;28;20312;-72
2021/10/18 01:32:06;;;;;;;0.80;0.80;;;;;;;5.49;60.98;101758.56;6315011;28;20185;-72
2021/10/18 01:35:12;;;;;;;2.57;0.80;;;;;;;5.45;61.62;101768.00;6316345;28;20186;-72
2021/10/18 01:38:17;;;;;;;0.70;0.70;;;;;;;5.39;62.04;101768.69;6314871;28;20470;-72
2021/10/18 01:41:22;;;;;;;0.90;0.70;;;;;;;5.33;61.45;101780.13;6314856;28;20189;-72
2021/10/18 01:44:26;;;;;;;0.77;0.73;;;;;;;5.39;61.71;101768.69;6316037;28;20185;-72
2021/10/18 01:47:30;;;;;;;0.93;0.87;;;;;;;5.32;61.57;101778.44;6315940;28;20209;-72
2021/10/18 01:50:34;;;;;;;0.70;0.70;;;;;;;5.33;61.84;101774.72;6314439;28;20468;-72
2021/10/18 01:53:40;;;;;;;0.80;0.80;;;;;;;5.39;62.11;101769.50;6315818;28;20253;-72
2021/10/18 01:56:44;;;;;;;0.67;0.67;;;;;;;5.36;61.17;101787.94;6315509;28;20224;-72
2021/10/18 01:59:48;;;;;;;0.70;0.70;;;;;;;5.41;61.29;101782.91;6315537;28;20243;-72
2021/10/18 02:02:52;;;;;;;0.80;0.80;;;;;;;5.40;61.92;101775.78;6296347;28;20299;-72
2021/10/18 02:05:57;;;;;;;0.70;0.70;;;;;;;5.42;62.59;101789.97;6314312;28;20352;-72
2021/10/18 02:09:03;;;;;;;1.37;0.83;;;;;;;5.46;62.61;101788.66;6315410;28;20210;-72
2021/10/18 02:12:07;;;;;;;1.00;0.80;;;;;;;5.40;62.25;101786.59;6314183;28;20523;-72
2021/10/18 02:15:12;;;;;;;0.73;0.73;;;;;;;5.41;63.16;101799.97;6314982;28;20193;-72
2021/10/18 02:18:17;;;;;;;0.80;0.80;;;;;;;5.34;63.02;101798.09;6313816;28;20187;-72
2021/10/18 02:21:21;;;;;;;0.60;0.60;;;;;;;5.37;63.78;101797.75;6314792;28;20255;-73
2021/10/18 02:24:27;;;;;;;0.80;0.80;;;;;;;5.36;63.63;101804.19;6314816;28;20187;-72
2021/10/18 02:27:49;;;;;;;1.50;0.60;;;;;;;5.29;64.63;101813.94;6314070;28;20194;-72
2021/10/18 02:30:54;;;;;;;0.70;0.70;;;;;;;5.37;63.24;101809.41;6314862;28;20216;-72
2021/10/18 02:33:58;;;;;;;1.03;0.80;;;;;;;5.31;63.06;101811.94;6314344;28;20189;-72
2021/10/18 02:37:02;;;;;;;0.80;0.80;;;;;;;5.21;63.35;101819.31;6314924;28;20249;-72
2021/10/18 02:40:09;;;;;;;0.80;0.80;;;;;;;5.29;63.15;101827.47;6314420;28;20195;-72
2021/10/18 02:43:14;;;;;;;0.80;0.80;;;;;;;5.30;63.29;101818.34;6314629;28;20265;-72
2021/10/18 02:46:18;;;;;;;0.70;0.70;;;;;;;5.34;64.36;101822.44;6313303;28;20492;-72
2021/10/18 02:49:22;;;;;;;1.07;0.87;;;;;;;5.45;64.20;101832.97;6313989;28;20308;-73
2021/10/18 02:52:27;;;;;;;1.90;0.80;;;;;;;5.41;64.85;101820.78;6314062;28;20209;-72
2021/10/18 02:55:32;;;;;;;0.67;0.67;;;;;;;5.36;65.48;101829.38;6313035;28;20435;-72
2021/10/18 02:58:36;;;;;;;0.83;0.83;;;;;;;5.46;63.80;101826.56;6312889;28;20477;-72
2021/10/18 03:01:40;;;;;;;0.70;0.70;;;;;;;5.39;65.34;101833.63;6313350;28;20296;-72
2021/10/18 03:04:46;;;;;;;0.60;0.60;;;;;;;5.39;64.33;101839.03;6314283;28;20258;-72
2021/10/18 03:07:52;;;;;;;0.70;0.60;;;;;;;5.43;64.96;101840.41;6314000;28;20253;-72
2021/10/18 03:10:57;;;;;;;1.30;0.80;;;;;;;5.34;65.12;101836.78;6313911;28;20214;-72
2021/10/18 03:14:01;;;;;;;1.20;0.93;;;;;;;5.28;65.87;101836.59;6312539;28;20386;-72
2021/10/18 03:17:06;;;;;;;0.80;0.80;;;;;;;5.21;66.08;101835.53;6313948;28;20187;-72
2021/10/18 03:20:13;;;;;;;0.80;0.80;;;;;;;5.19;66.50;101838.38;6312481;28;20261;-72
2021/10/18 03:23:19;;;;;;;0.60;0.60;;;;;;;5.13;66.29;101843.59;6313043;28;20190;-72
2021/10/18 03:26:25;;;;;;;0.93;0.73;;;;;;;5.16;65.96;101837.88;6312673;28;20254;-71
2021/10/18 03:29:29;;;;;;;0.83;0.80;;;;;;;5.16;66.04;101854.09;6313391;28;20214;-72
2021/10/18 03:32:33;;;;;;;2.53;0.80;;;;;;;5.20;65.75;101844.66;6312469;28;20194;-72
2021/10/18 03:35:37;;;;;;;0.80;0.80;;;;;;;5.17;65.49;101850.38;6313103;28;20271;-72
2021/10/18 03:38:41;;;;;;;0.70;0.70;;;;;;;5.07;66.44;101850.47;6313314;28;20223;-72
2021/10/18 03:41:47;;;;;;;1.10;0.70;;;;;;;5.06;64.97;101849.63;6294486;28;20496;-73
2021/10/18 03:44:52;;;;;;;0.80;0.80;;;;;;;5.29;64.76;101859.94;6312640;28;20234;-72
2021/10/18 03:47:56;;;;;;;0.70;0.70;;;;;;;5.16;66.72;101864.91;6312134;28;20188;-72
2021/10/18 03:51:00;;;;;;;0.70;0.70;;;;;;;5.24;66.33;101851.47;6312965;28;20215;-72
2021/10/18 03:54:04;;;;;;;0.67;0.67;;;;;;;5.18;66.87;101857.50;6312694;28;20186;-71
2021/10/18 03:57:11;;;;;;;2.17;0.70;;;;;;;5.15;67.06;101855.94;6312720;28;20186;-71
2021/10/18 04:00:16;;;;;;;1.23;0.73;;;;;;;5.14;66.39;101853.38;6312519;28;20200;-70
2021/10/18 04:03:20;;;;;;;0.70;0.70;;;;;;;5.11;67.43;101859.13;6311926;28;20235;-71
2021/10/18 04:06:25;;;;;;;1.87;0.77;;;;;;;5.06;65.91;101863.13;6311479;28;20553;-71
2021/10/18 04:09:29;;;;;;;0.90;0.70;;;;;;;5.11;66.10;101861.84;6312372;28;20241;-71
2021/10/18 04:12:34;;;;;;;2.47;0.80;;;;;;;5.15;65.97;101857.78;6312605;28;20223;-71
2021/10/18 04:15:38;;;;;;;0.70;0.70;;;;;;;5.10;66.98;101868.25;6312683;28;20254;-70
2021/10/18 04:18:43;;;;;;;1.00;0.70;;;;;;;5.15;66.12;101874.03;6311180;28;20473;-71
2021/10/18 04:21:47;;;;;;;0.70;0.70;;;;;;;5.11;65.24;101878.88;6312442;28;20189;-71
2021/10/18 04:24:51;;;;;;;0.60;0.60;;;;;;;5.22;65.64;101883.22;6312209;28;20249;-71
2021/10/18 04:27:56;;;;;;;1.43;0.70;;;;;;;5.24;65.62;101889.34;6311035;28;20185;-71
2021/10/18 04:31:00;;;;;;;1.90;0.70;;;;;;;5.15;66.36;101895.66;6312300;28;20324;-71
2021/10/18 04:34:05;;;;;;;0.77;0.77;;;;;;;5.14;66.02;101893.97;6311684;28;20186;-70
2021/10/18 04:37:09;;;;;;;0.80;0.80;;;;;;;5.19;66.15;101894.38;6312057;28;20259;-70
2021/10/18 04:40:14;;;;;;;4.20;0.87;;;;;;;5.11;66.39;101905.13;6311855;28;20532;-72
2021/10/18 04:43:19;;;;;;;0.70;0.70;;;;;;;5.16;67.56;101894.69;6312326;28;20193;-71
2021/10/18 04:46:24;;;;;;;0.80;0.80;;;;;;;4.98;67.96;101900.09;6310882;28;20378;-71
2021/10/18 04:49:28;;;;;;;1.50;0.70;;;;;;;5.17;66.76;101894.50;6311766;28;20185;-71
2021/10/18 04:52:32;;;;;;;0.90;0.83;;;;;;;5.14;67.42;101900.22;6311050;28;20252;-71
2021/10/18 04:55:37;;;;;;;2.20;0.90;;;;;;;5.16;67.52;101900.09;6311388;28;20216;-71
2021/10/18 04:58:42;;;;;;;0.90;0.90;;;;;;;5.18;66.90;101901.63;6315312;28;20223;-71
2021/10/18 05:01:46;;;;;;;0.83;0.83;;;;;;;5.09;67.39;101907.97;6316170;28;20454;-71
2021/10/18 05:04:50;;;;;;;0.90;0.90;;;;;;;5.02;68.14;101907.75;6316521;28;20208;-71
2021/10/18 05:08:02;;;;;;;0.70;0.70;;;;;;;5.05;67.89;101906.59;6316832;28;20193;-71
2021/10/18 05:11:07;;;;;;;0.80;0.80;;;;;;;5.00;68.81;101907.06;6316773;28;20240;-72
2021/10/18 05:14:13;;;;;;;0.73;0.73;;;;;;;5.04;67.80;101916.56;6315382;28;20374;-71
2021/10/18 05:17:17;;;;;;;0.70;0.70;;;;;;;5.00;67.67;101915.19;6316284;28;20185;-71
2021/10/18 05:20:21;;;;;;;0.60;0.60;;;;;;;4.89;68.43;101911.84;6316640;28;20296;-71
2021/10/18 05:23:25;;;;;;;1.60;0.90;;;;;;;4.90;68.09;101913.53;6315250;28;20478;-71
2021/10/18 05:26:29;;;;;;;1.50;0.90;;;;;;;4.88;68.51;101927.19;6316228;28;20265;-72
2021/10/18 05:29:35;;;;;;;0.93;0.90;;;;;;;4.91;67.85;101931.44;6315817;28;20260;-72
2021/10/18 05:32:40;;;;;;;0.90;0.90;;;;;;;4.97;67.64;101920.88;6314675;28;20213;-71
2021/10/18 05:35:46;;;;;;;0.80;0.80;;;;;;;4.97;66.53;101931.69;6314880;28;20382;-72
2021/10/18 05:38:50;;;;;;;2.67;0.90;;;;;;;4.87;68.01;101925.53;6315705;28;20185;-71
2021/10/18 05:41:54;;;;;;;1.80;0.90;;;;;;;4.87;67.67;101936.34;6315137;28;20197;-72
2021/10/18 05:45:00;;;;;;;1.70;0.80;;;;;;;4.77;68.50;101940.09;6314933;28;20234;-72
2021/10/18 05:48:05;;;;;;;2.23;0.93;;;;;;;4.84;66.89;101933.94;6315602;28;20185;-72
2021/10/18 05:51:10;;;;;;;0.93;0.93;;;;;;;4.88;67.23;101938.03;6313777;28;20482;-72
2021/10/18 05:54:14;;;;;;;4.27;0.90;;;;;;;4.90;66.46;101951.41;6314332;28;20186;-72
2021/10/18 05:57:18;;;;;;;0.80;0.80;;;;;;;4.87;66.77;101947.16;6315141;28;20193;-72
2021/10/18 06:00:25;;;;;;;1.17;0.80;;;;;;;4.82;66.96;101956.72;6314396;28;20499;-72
2021/10/18 06:03:31;;;;;;;0.97;0.97;;;;;;;4.80;66.72;101961.44;6314130;28;20310;-70
2021/10/18 06:06:36;;;;;;;0.80;0.80;;;;;;;4.84;67.12;101963.69;6315323;28;20249;-73
2021/10/18 06:09:48;;;;;;;0.80;0.80;;;;;;;4.91;66.58;101964.75;6313755;28;20187;-71
2021/10/18 06:12:56;;;;;;;0.80;0.80;;;;;;;4.89;66.10;101964.06;6314906;28;20220;-71
2021/10/18 06:16:01;;;;;;;1.60;0.90;;;;;;;4.87;65.86;101974.19;6313681;28;20223;-71
2021/10/18 06:19:05;;;;;;;0.73;0.73;;;;;;;4.90;66.50;101971.19;6314982;28;20200;-72
2021/10/18 06:22:10;;;;;;;1.20;0.77;;;;;;;4.89;64.98;101961.38;6313534;28;20502;-71
2021/10/18 06:25:14;;;;;;;0.80;0.80;;;;;;;4.84;66.60;101969.09;6314060;28;20256;-71
2021/10/18 06:28:20;;;;;;;3.10;0.70;;;;;;;4.98;65.86;101971.25;6314422;28;20239;-71
2021/10/18 06:31:26;;;;;;;0.70;0.70;;;;;;;4.78;65.18;101968.81;6314567;28;20213;-72
2021/10/18 06:34:30;;;;;;;1.57;1.20;;;;;;;4.95;64.97;101982.41;6314275;28;20261;-71
2021/10/18 06:37:34;;;;;;;0.97;0.97;;;;;;;4.93;64.36;101984.38;6313273;28;20476;-72
2021/10/18 06:40:39;;;;;;;1.70;0.93;;;;;;;4.86;63.89;101977.88;6313389;28;20194;-72
2021/10/18 06:43:43;;;;;;;0.70;0.70;;;;;;;4.90;64.69;101979.31;6314554;28;20186;-72
2021/10/18 06:46:48;;;;;;;0.87;0.87;;;;;;;4.93;64.00;101988.97;6313246;28;20217;-71
2021/10/18 06:49:55;;;;;;;1.17;1.00;;;;;;;4.97;63.64;101991.22;6314574;28;20265;-72
2021/10/18 06:52:59;;;;;;;1.23;0.70;;;;;;;5.04;63.39;101997.69;6312806;28;20275;-72
2021/10/18 06:56:05;;;;;;;0.70;0.70;;;;;;;5.05;63.34;101994.00;6313122;28;20188;-72
2021/10/18 06:59:09;;;;;;;1.27;0.80;;;;;;;5.15;63.66;102003.88;6313699;28;20186;-71
2021/10/18 07:02:15;;;;;;;2.17;0.90;;;;;;;5.07;63.09;101994.69;6313578;28;20243;-72
2021/10/18 07:05:19;;;;;;;0.80;0.80;;;;;;;5.16;63.23;101994.78;6312588;28;20510;-72
2021/10/18 07:08:24;;;;;;;1.70;0.80;;;;;;;5.16;62.41;102011.00;6312567;28;20435;-71
2021/10/18 07:11:28;;;;;;;2.80;0.63;;;;;;;5.25;63.09;102010.06;6313494;28;20355;-72
2021/10/18 07:14:32;;;;;;;1.90;1.13;;;;;;;5.25;63.00;102007.38;6312290;28;20357;-72
2021/10/18 07:17:38;;;;;;;1.43;0.80;;;;;;;5.30;62.71;102024.00;6312040;28;20574;-71
2021/10/18 07:20:42;;;;;;;0.90;0.90;;;;;;;5.33;62.36;102023.69;6311748;28;20223;-72
2021/10/18 07:23:52;;;;;;;1.00;1.00;;;;;;;5.17;61.57;102026.22;6313021;28;20191;-72
2021/10/18 07:26:56;;;;;;;0.83;0.83;;;;;;;5.28;62.10;102036.84;6313422;28;20216;-72
2021/10/18 07:30:00;;;;;;;2.17;1.00;;;;;;;5.36;62.23;102034.22;6313379;28;20189;-71
2021/10/18 07:33:06;;;;;;;1.40;0.83;;;;;;;5.32;62.10;102040.91;6311933;28;20442;-72
2021/10/18 07:36:13;;;;;;;0.97;0.97;;;;;;;5.46;61.86;102035.84;6311919;28;20476;-71
2021/10/18 07:39:20;;;;;;;0.77;0.77;;;;;;;5.34;61.21;102052.47;6311843;28;20508;-72
2021/10/18 07:42:24;;;;;;;1.00;1.00;;;;;;;5.36;61.04;102050.44;6312336;28;20188;-72
2021/10/18 07:45:29;;;;;;;1.00;1.00;;;;;;;5.43;61.46;102046.13;6311807;28;20481;-72
2021/10/18 07:48:34;;;;;;;1.13;0.80;;;;;;;5.45;61.75;102049.50;6312608;28;20295;-73
2021/10/18 07:51:39;;;;;;;2.30;0.90;;;;;;;5.58;60.74;102049.97;6312024;28;20276;-72
2021/10/18 07:54:46;;;;;;;1.20;0.80;;;;;;;5.51;61.86;102054.31;6294941;28;20242;-72
2021/10/18 07:57:51;;;;;;;1.00;1.00;;;;;;;5.47;60.90;102047.53;6311424;28;20420;-72
2021/10/18 08:00:55;;;;;;;0.83;0.83;;;;;;;5.47;61.21;102058.34;6312803;28;20201;-72
2021/10/18 08:04:01;;;;;;;0.70;0.70;;;;;;;5.29;60.46;102060.19;6311082;28;20274;-72
2021/10/18 08:07:05;;;;;;;1.03;0.83;;;;;;;5.26;61.38;102055.09;6311773;28;20515;-72
2021/10/18 08:10:12;;;;;;;1.10;1.00;;;;;;;5.37;60.45;102068.38;6311691;28;20218;-72
2021/10/18 08:13:20;;;;;;;0.77;0.77;;;;;;;5.44;60.37;102066.78;6312553;28;20247;-72
2021/10/18 08:16:25;;;;;;;1.03;0.80;;;;;;;5.38;60.33;102064.69;6312309;28;20184;-72
2021/10/18 08:19:31;;;;;;;1.07;0.97;;;;;;;5.44;60.48;102074.91;6312026;28;20184;-72
2021/10/18 08:22:35;;;;;;;1.00;1.00;;;;;;;5.48;60.10;102074.44;6310950;28;20479;-72
2021/10/18 08:25:40;;;;;;;1.97;0.93;;;;;;;5.56;59.78;102069.09;6311611;28;20191;-73
2021/10/18 08:28:44;;;;;;;1.90;0.80;;;;;;;5.47;60.14;102080.00;6311149;28;20382;-72
2021/10/18 08:31:49;;;;;;;3.83;0.87;;;;;;;5.54;59.50;102079.22;6311884;28;20185;-72
2021/10/18 08:34:55;;;;;;;3.77;1.00;;;;;;;5.62;61.04;102073.88;6311311;28;20185;-72
2021/10/18 08:38:18;;;;;;;1.90;1.00;;;;;;;5.56;60.52;102076.34;6311287;28;20224;-72
2021/10/18 08:41:28;;;;;;;0.93;0.87;;;;;;;5.79;59.87;102074.03;6311622;28;20262;-72
2021/10/18 08:44:34;;;;;;;0.90;0.90;;;;;;;5.74;59.57;102074.50;6310880;28;20198;-72
2021/10/18 08:47:39;;;;;;;2.53;0.97;;;;;;;5.65;59.00;102094.38;6311052;28;20269;-72
2021/10/18 08:50:45;;;;;;;7.40;1.00;;;;;;;5.65;59.83;102088.97;6310900;28;20500;-72
2021/10/18 08:53:49;;;;;;;2.13;0.80;;;;;;;5.80;59.21;102081.16;6310675;28;20445;-72
2021/10/18 08:56:54;;;;;;;0.90;0.90;;;;;;;5.66;59.12;102090.66;6310709;28;20190;-72
2021/10/18 08:59:58;;;;;;;2.53;0.80;;;;;;;5.79;60.02;102085.72;6311774;28;20219;-73
2021/10/18 09:03:02;;;;;;;2.80;0.90;;;;;;;5.82;60.57;102074.56;6311185;28;20430;-73
2021/10/18 09:06:13;;;;;;;1.83;1.00;;;;;;;5.95;60.46;102090.47;6310761;28;20471;-73
2021/10/18 09:09:22;;;;;;;1.93;0.90;;;;;;;6.07;59.41;102084.63;6311803;28;20268;-72
2021/10/18 09:12:28;;;;;;;0.80;0.80;;;;;;;5.96;59.14;102084.88;6310548;28;20516;-72
2021/10/18 09:15:33;;;;;;;0.80;0.80;;;;;;;5.97;59.97;102093.84;6311585;28;20193;-72
2021/10/18 09:18:39;;;;;;;4.33;0.97;;;;;;;6.15;59.11;102092.81;6310593;28;20501;-72
2021/10/18 09:21:48;;;;;;;5.03;1.10;;;;;;;6.17;59.83;102096.22;6310478;28;20382;-72
2021/10/18 09:24:52;;;;;;;4.07;1.00;;;;;;;6.06;59.75;102101.06;6310462;28;20477;-72
2021/10/18 09:28:08;;;;;;;0.93;0.90;;;;;;;6.19;59.73;102099.63;6311439;28;20186;-72
2021/10/18 09:31:16;;;;;;;5.20;1.00;;;;;;;6.22;60.04;102093.88;6310318;28;20587;-72
2021/10/18 09:34:21;;;;;;;5.83;0.87;;;;;;;6.21;62.15;102103.00;6310369;28;20507;-72
2021/10/18 09:37:38;;;;;;;1.13;1.10;;;;;;;6.32;59.44;102101.91;6310336;28;20382;-72
2021/10/18 09:40:45;;;;;;;0.90;0.90;;;;;;;6.19;61.20;102110.47;6311665;28;20193;-72
2021/10/18 09:43:58;;;;;;;0.90;0.90;;;;;;;6.27;59.98;102107.81;6313075;28;20197;-72
2021/10/18 09:47:38;;;;;;;2.57;1.23;;;;;;;6.29;59.46;102115.81;6316079;28;20264;-72
2021/10/18 10:52:55;;;;;;;3.63;1.43;;;;;;;7.08;60.15;102143.56;6314149;28;20184;-71
2021/10/18 10:56:01;;;;;;;0.90;0.90;;;;;;;7.04;58.94;102150.31;6311670;28;20215;-72
2021/10/18 10:59:19;;;;;;;0.90;0.90;;;;;;;7.19;58.61;102151.41;6313661;28;20188;-72
2021/10/18 11:02:30;;;;;;;2.47;0.80;;;;;;;7.21;58.99;102141.25;6313050;28;20228;-71
2021/10/18 11:05:34;;;;;;;2.73;1.10;;;;;;;7.37;58.44;102135.84;6313655;28;20187;-72
2021/10/18 11:08:40;;;;;;;2.07;0.93;;;;;;;7.27;59.46;102135.16;6312492;28;20431;-72
2021/10/18 11:11:45;;;;;;;0.87;0.87;;;;;;;7.32;59.44;102132.78;6312524;28;20191;-71
2021/10/18 11:14:54;;;;;;;1.57;1.10;;;;;;;7.37;59.63;102141.28;6312573;28;20208;-71
2021/10/18 11:18:00;;;;;;;3.03;0.97;;;;;;;7.46;58.05;102129.44;6312340;28;20249;-71
2021/10/18 11:21:15;;;;;;;3.73;1.00;;;;;;;7.55;58.21;102128.44;6312395;28;20354;-72
2021/10/18 11:24:19;;;;;;;1.97;1.00;;;;;;;7.27;57.81;102137.84;6313210;28;20188;-71
2021/10/18 11:27:25;;;;;;;2.03;1.20;;;;;;;7.32;57.53;102143.66;6312325;28;20476;-72
2021/10/18 11:30:32;;;;;;;1.83;1.07;;;;;;;7.50;58.03;102160.69;6313217;28;20219;-72
2021/10/18 11:33:38;;;;;;;0.98;0.98;;;;;;;7.56;58.46;102157.31;6312069;28;20249;-72
2021/10/18 11:36:44;;;;;;;1.00;1.00;;;;;;;7.53;58.22;102168.50;6313202;28;20183;-72
2021/10/18 11:39:48;;;;;;;0.93;0.93;;;;;;;7.57;57.82;102169.84;6311845;28;20379;-72
2021/10/18 11:42:54;;;;;;;2.03;1.00;;;;;;;7.63;58.70;102162.09;6311889;28;20455;-72
2021/10/18 11:45:58;;;;;;;1.17;0.80;;;;;;;7.55;56.97;102166.47;6313141;28;20199;-72
2021/10/18 11:49:08;;;;;;;0.93;0.90;;;;;;;7.60;56.73;102176.00;6312765;28;20250;-72
2021/10/18 11:52:13;;;;;;;0.80;0.80;;;;;;;7.52;56.59;102179.53;6313313;28;20184;-72
2021/10/18 11:55:18;;;;;;;7.83;0.97;;;;;;;7.66;57.43;102178.91;6311557;28;20408;-72
2021/10/18 11:58:24;;;;;;;0.87;0.87;;;;;;;7.77;57.51;102170.44;6311866;28;20183;-72
2021/10/18 12:01:29;;;;;;;1.73;0.90;;;;;;;7.72;58.72;102172.81;6312403;28;20310;-72
2021/10/18 12:04:55;;;;;;;0.80;0.80;;;;;;;7.92;58.53;102167.91;6311344;28;20541;-72
2021/10/18 12:07:59;;;;;;;1.73;0.70;;;;;;;7.88;58.66;102161.13;6311007;28;20187;-72
2021/10/18 12:11:05;;;;;;;0.80;0.70;;;;;;;7.96;58.02;102163.84;6312522;28;20184;-73
2021/10/18 12:14:10;;;;;;;4.00;1.00;;;;;;;7.94;58.18;102177.59;6312592;28;20234;-72
2021/10/18 12:17:17;;;;;;;1.00;1.00;;;;;;;7.87;58.94;102186.59;6311344;28;20184;-72
2021/10/18 12:20:22;;;;;;;2.42;1.23;;;;;;;7.96;58.24;102180.16;6311217;28;20498;-72
2021/10/18 12:23:29;;;;;;;1.45;0.70;;;;;;;7.94;57.50;102190.31;6311547;28;20262;-72
2021/10/18 12:26:40;;;;;;;0.90;0.90;;;;;;;8.07;57.62;102187.97;6312532;28;20209;-72
2021/10/18 12:29:44;;;;;;;2.60;0.93;;;;;;;8.17;57.69;102185.94;6312555;28;20229;-72
2021/10/18 12:33:09;;;;;;;0.90;0.87;;;;;;;8.02;55.74;102195.78;6312480;28;20214;-72
2021/10/18 12:36:16;;;;;;;0.90;0.90;;;;;;;8.03;56.11;102194.78;6311595;28;20239;-72
2021/10/18 12:39:48;;;;;;;2.13;1.10;;;;;;;8.04;57.52;102191.03;6312449;28;20183;-74
2021/10/18 12:42:52;;;;;;;1.55;0.82;;;;;;;7.98;55.74;102184.41;6265329;28;20199;-73
2021/10/18 12:45:56;;;;;;;0.97;0.97;;;;;;;8.02;55.53;102201.22;6311923;28;20222;-72
2021/10/18 12:49:03;;;;;;;0.80;0.80;;;;;;;7.96;55.47;102212.78;6312023;28;20214;-72
2021/10/18 12:52:09;;;;;;;2.03;1.13;;;;;;;7.99;55.62;102196.13;6311168;28;20191;-72
2021/10/18 12:55:20;;;;;;;1.07;0.90;;;;;;;8.04;56.54;102205.47;6310601;28;20403;-72
2021/10/18 12:58:26;;;;;;;0.80;0.80;;;;;;;8.10;54.93;102209.38;6311617;28;20184;-72
2021/10/18 13:01:30;;;;;;;4.35;0.90;;;;;;;8.12;55.41;102197.34;6311397;28;20203;-72
2021/10/18 13:04:34;;;;;;;4.25;0.90;;;;;;;8.26;55.74;102190.38;6311887;28;20220;-72
2021/10/18 13:07:41;;;;;;;1.10;1.00;;;;;;;8.12;56.33;102197.34;6310525;28;20373;-72
2021/10/18 13:10:47;;;;;;;1.80;0.93;;;;;;;8.09;55.95;102197.66;6311988;28;20250;-72
2021/10/18 13:13:51;;;;;;;0.95;0.95;;;;;;;8.16;55.76;102197.84;6310549;28;20402;-73
2021/10/18 13:16:56;;;;;;;1.00;0.82;;;;;;;8.17;54.94;102214.00;6310490;28;20446;-72
2021/10/18 13:20:00;;;;;;;1.33;0.80;;;;;;;8.25;55.42;102212.28;6315253;28;20183;-72
2021/10/18 13:23:09;;;;;;;2.83;0.70;;;;;;;8.14;55.25;102210.75;6315629;28;20246;-72
2021/10/18 13:26:13;;;;;;;1.02;0.90;;;;;;;8.27;55.08;102207.59;6315215;28;20382;-73
2021/10/18 13:29:17;;;;;;;0.80;0.80;;;;;;;8.28;55.53;102221.00;6314918;28;20591;-73
2021/10/18 13:32:21;;;;;;;0.90;0.90;;;;;;;8.30;55.96;102208.06;6315466;28;20191;-73
2021/10/18 13:35:26;;;;;;;0.80;0.80;;;;;;;8.31;56.25;102217.94;6316148;28;20261;-72
2021/10/18 13:38:32;;;;;;;1.88;0.90;;;;;;;8.28;55.88;102222.88;6314918;28;20184;-72
2021/10/18 13:41:39;;;;;;;2.75;0.90;;;;;;;8.30;56.12;102221.69;6315434;28;20191;-72
2021/10/18 13:44:43;;;;;;;1.20;0.88;;;;;;;8.33;56.61;102218.63;6314465;28;20215;-72
2021/10/18 13:47:48;;;;;;;2.60;1.50;;;;;;;8.31;54.84;102223.38;6315432;28;20196;-73
2021/10/18 13:50:53;;;;;;;1.75;1.00;;;;;;;8.22;53.87;102235.22;6315393;28;20190;-73
2021/10/18 13:53:58;;;;;;;1.17;0.77;;;;;;;8.31;54.03;102234.25;6315341;28;20247;-72
2021/10/18 13:57:04;;;;;;;0.93;0.93;;;;;;;8.28;53.84;102240.03;6315383;28;20207;-73
2021/10/18 14:00:10;;;;;;;1.58;0.93;;;;;;;8.30;55.60;102243.44;6314642;28;20199;-72
2021/10/18 14:03:18;;;;;;;1.10;1.10;;;;;;;8.28;55.96;102250.91;6296596;28;20291;-73
2021/10/18 14:06:22;;;;;;;0.90;0.90;;;;;;;8.35;53.99;102249.22;6314323;28;20195;-73
2021/10/18 14:10:06;;;;;;;0.90;0.90;;;;;;;8.26;54.38;102241.19;6315802;28;20191;-73
2021/10/18 14:13:13;;;;;;;3.60;0.90;;;;;;;8.31;54.30;102244.28;6315523;28;20402;-73
2021/10/18 14:16:17;;;;;;;4.20;0.98;;;;;;;8.26;54.81;102242.03;6314268;28;20435;-72
2021/10/18 14:19:22;;;;;;;1.15;0.70;;;;;;;8.26;54.48;102247.47;6313992;28;20183;-72
2021/10/18 14:22:26;;;;;;;0.82;0.80;;;;;;;8.23;55.15;102247.81;6313726;28;20366;-72
2021/10/18 14:25:32;;;;;;;2.83;0.85;;;;;;;8.20;54.83;102242.72;6314922;28;20255;-72
2021/10/18 14:28:36;;;;;;;0.70;0.70;;;;;;;8.23;56.58;102247.81;6314291;28;20196;-73
2021/10/18 14:31:40;;;;;;;1.73;1.00;;;;;;;8.28;55.06;102255.50;6314837;28;20190;-72
2021/10/18 14:34:44;;;;;;;0.80;0.80;;;;;;;8.28;55.16;102256.34;6314546;28;20215;-72
2021/10/18 14:37:48;;;;;;;0.70;0.70;;;;;;;8.18;54.65;102269.22;6314306;28;20212;-72
2021/10/18 14:40:54;;;;;;;1.77;0.80;;;;;;;8.15;54.11;102261.38;6314289;28;20219;-73
2021/10/18 14:44:01;;;;;;;1.35;0.93;;;;;;;8.13;54.88;102258.84;6314696;28;20258;-72
2021/10/18 14:47:05;;;;;;;0.90;0.90;;;;;;;8.12;55.56;102262.56;6314089;28;20188;-73
2021/10/18 14:50:11;;;;;;;2.10;1.30;;;;;;;8.12;54.58;102257.13;6313118;28;20460;-72
2021/10/18 14:53:15;;;;;;;2.08;0.80;;;;;;;8.18;55.63;102282.81;6295976;28;20199;-72
2021/10/18 14:56:35;;;;;;;0.93;0.93;;;;;;;8.13;55.36;102268.88;6312843;28;20592;-73
2021/10/18 14:59:40;;;;;;;2.25;0.90;;;;;;;8.09;55.42;102272.91;6313679;28;20190;-73
2021/10/18 15:02:46;;;;;;;3.83;0.90;;;;;;;8.09;56.13;102281.94;6313606;28;20518;-72
2021/10/18 15:05:51;;;;;;;1.20;0.70;;;;;;;8.06;55.76;102284.16;6312709;28;20384;-73
2021/10/18 15:08:57;;;;;;;4.20;1.00;;;;;;;7.98;55.86;102292.28;6312682;28;20471;-72
2021/10/18 15:12:03;;;;;;;2.92;0.88;;;;;;;7.98;55.91;102289.56;6313081;28;20251;-72
2021/10/18 15:15:07;;;;;;;2.38;1.00;;;;;;;7.95;56.13;102292.59;6312691;28;20410;-73
2021/10/18 15:18:16;;;;;;;0.93;0.90;;;;;;;7.94;56.79;102296.31;6313414;28;20221;-73
2021/10/18 15:21:20;;;;;;;0.77;0.77;;;;;;;7.97;57.56;102293.28;6313419;28;20183;-72
2021/10/18 15:24:25;;;;;;;0.80;0.80;;;;;;;7.86;57.43;102293.56;6313260;28;20183;-72
2021/10/18 15:27:32;;;;;;;3.78;1.00;;;;;;;7.77;59.55;102305.44;6313497;28;20258;-73
2021/10/18 15:30:36;;;;;;;0.80;0.80;;;;;;;7.65;59.34;102298.59;6312930;28;20221;-73
2021/10/18 15:33:41;;;;;;;0.80;0.80;;;;;;;7.74;58.83;102309.34;6312092;28;20396;-73
2021/10/18 15:36:46;;;;;;;0.88;0.88;;;;;;;7.85;59.11;102305.47;6311763;28;20400;-73
2021/10/18 15:39:49;;;;;;;3.92;1.00;;;;;;;7.75;58.10;102318.34;6312836;28;20216;-72